This is the latest recevied weather packets stored in our database for station/object IT9GFD-13. If no packets are shown the sender has not sent any weather packets the latest 10 day(s).
| Time | Temp. | Humidity | Pressure | Rain* | Wind** | Luminosity | Snow |
|---|---|---|---|---|---|---|---|
| 1778130016 | 17.22° C | 82% | 1015.3 hPa | 0 mm | - | - | - |
| 1778129416 | 17.22° C | 82% | 1015.3 hPa | 0 mm | - | - | - |
| 1778128817 | 17.22° C | 81% | 1015.6 hPa | 0 mm | - | - | - |
| 1778125816 | 17.78° C | 66% | 1015.4 hPa | 0 mm | - | - | - |
| 1778125217 | 17.22° C | 68% | 1015.3 hPa | 0 mm | - | - | - |
| 1778122816 | 17.22° C | 76% | 1015.3 hPa | 0 mm | - | - | - |
| 1778121016 | 17.22° C | 83% | 1015.2 hPa | 0 mm | - | - | - |
| 1778116216 | 17.22° C | 85% | 1015.7 hPa | 0 mm | - | - | - |
| 1778104816 | 17.78° C | 70% | 1015.4 hPa | 0 mm | - | - | - |
| 1778103036 | 17.22° C | 82% | 1015.2 hPa | 0 mm | - | - | - |
| 1778101817 | 16.67° C | 88% | 1015.2 hPa | 0 mm | - | - | - |
| 1778100617 | 17.22° C | 89% | 1015.6 hPa | 0 mm | - | - | - |
| 1778085617 | 18.33° C | 85% | 1016.2 hPa | 0 mm | - | - | - |
| 1778082017 | 18.33° C | 84% | 1016.7 hPa | 0 mm | - | - | - |
| 1778080217 | 18.89° C | 83% | 1016.6 hPa | 0 mm | - | - | - |
| 1778079017 | 18.89° C | 83% | 1016.6 hPa | 0 mm | - | - | - |
| 1778076017 | 19.44° C | 82% | 1016.3 hPa | 0 mm | - | - | - |
| 1778075417 | 19.44° C | 82% | 1016.4 hPa | 0 mm | - | - | - |
| 1778073017 | 18.89° C | 83% | 1016.6 hPa | 0 mm | - | - | - |
| 1778072437 | 19.44° C | 82% | 1016.9 hPa | 0 mm | - | - | - |
| 1778071817 | 19.44° C | 82% | 1016.8 hPa | 0 mm | - | - | - |
| 1778067017 | 19.44° C | 79% | 1017.5 hPa | 0 mm | - | - | - |
| 1778063417 | 19.44° C | 82% | 1017.4 hPa | 0 mm | - | - | - |
| 1778062816 | 19.44° C | 82% | 1017.5 hPa | 0 mm | - | - | - |
| 1778062217 | 19.44° C | 82% | 1017.5 hPa | 0 mm | - | - | - |
* Rain latest hour (hover to see other rain measurements)
** Current wind speed in m/s (hover to see current wind gust speed)